Star Princess — ZCDD6 — position and weather

sailwx.info

Track history (hours):
 
Tides and Currents Weather Stations Pressure Air Temp Water Temp Dewpoint Dewpoint Depression Visibility Wind Speed Wind Dir Waves Ship Positions

Star Princess

Operator: Princess Cruises

Last reported at 2019-Jul-19 15:00 UTC. Time now 2019-Jul-19 18:32 UTC.
Position N 55°18' W 134°12'.

Length 289.6 m; beam 36 m; draft 8.4 m.

Type: Ship. MMSI: 310361000.

Wind from 180 at 11 knots

Barometer 1017.0 mb
Air temperature 13.5 ° C
Visibility: greater than 10.8 NM
Dewpoint 12.7 ° C
Water temperature 16.0 ° C

Date/timePositionNaut miles runAvg speedWind from/ knotsBaromVisibWave heightAir tempDewpointWater temp
2019-Jul-19 15:00N 55°18' W 134°12'20618.7 180 / 111017.010.8 13.512.716.0
2019-Jul-19 04:00N 58°42' W 135°06'98 2.4 180 / 201011.8 5.4 15.012.815.0
2019-Jul-17 11:00N 57°12' W 133°54'6716.8 030 / 7999.8 5.4 13.012.114.0
2019-Jul-17 07:00N 56°06' W 134°18'4511.3 010 / 14999.8 5.4 13.012.114.0
2019-Jul-17 03:00N 56°18' W 133°00'94 6.3 150 / 171005.2 5.4 14.012.215.0
2019-Jul-16 12:02N 55°08' W 131°10'1515.9
2019-Jul-16 11:04N 54°52' W 131°08'313.9
2019-Jul-16 10:53N 54°50' W 131°08'913.9
2019-Jul-16 10:15N 54°42' W 131°14'513.8
2019-Jul-16 09:54N 54°37' W 131°17'614.2
2019-Jul-16 09:28N 54°31' W 131°16'613.6
2019-Jul-16 09:00N 54°25' W 131°16'713.7
2019-Jul-16 08:30N 54°18' W 131°15'714.3
2019-Jul-16 08:00N 54°11' W 131°15'713.7
2019-Jul-16 07:30N 54°04' W 131°15'713.9
2019-Jul-16 07:01N 53°57' W 131°12'714.1
2019-Jul-16 06:30N 53°50' W 131°09'714.3
2019-Jul-16 06:00N 53°43' W 131°05'2197.5
2019-Jul-16 06:00N 53°42' W 131°06'611.9 030 / 81016.310.8 17.013.517.0
2019-Jul-16 05:30N 53°37' W 131°03'714.6
2019-Jul-16 05:01N 53°29' W 131°02'914.1
2019-Jul-16 04:22N 53°21' W 130°57'513.9
2019-Jul-16 04:01N 53°16' W 130°54'1018.1
2019-Jul-16 03:29N 53°07' W 130°48'1018.3
2019-Jul-16 02:56N 52°58' W 130°41'817.5
2019-Jul-16 02:30N 52°51' W 130°36'917.9
2019-Jul-16 01:58N 52°42' W 130°30'818.1
2019-Jul-16 01:30N 52°35' W 130°25'918.1
2019-Jul-16 01:00N 52°26' W 130°19'1318.2
2019-Jul-16 00:16N 52°14' W 130°11'517.7
2019-Jul-16 00:00N 52°09' W 130°08'1017.7
2019-Jul-15 23:28N 52°01' W 130°02'1318.2
2019-Jul-15 22:46N 51°49' W 129°54'416.2
2019-Jul-15 22:30N 51°45' W 129°51'917.8
2019-Jul-15 22:00N 51°37' W 129°45'2142.3
2019-Jul-15 22:00N 51°36' W 129°42'715.3 330 / 81018.610.8 18.016.316.0
2019-Jul-15 21:30N 51°29' W 129°39'918.0
2019-Jul-15 21:00N 51°21' W 129°34'918.2
2019-Jul-15 20:30N 51°12' W 129°28'918.6
2019-Jul-15 20:01N 51°04' W 129°22'918.3
2019-Jul-15 19:30N 50°55' W 129°16'917.8
2019-Jul-15 19:01N 50°47' W 129°11'918.7
2019-Jul-15 18:30N 50°38' W 129°05'919.0
2019-Jul-15 18:00N 50°30' W 128°59'7398.7
2019-Jul-15 18:00N 50°24' W 128°54'3 6.3 030 / 91018.310.8 19.013.818.0
2019-Jul-15 17:30N 50°21' W 128°53'1119.5
2019-Jul-15 16:57N 50°13' W 128°41'6321.3
2019-Jul-15 14:00N 49°30' W 127°30'3615.7 240 / 51018.110.8 16.215.017.0
2019-Jul-15 11:43N 49°07' W 126°48'418.8
2019-Jul-15 11:29N 49°05' W 126°42'918.2
2019-Jul-15 11:01N 49°01' W 126°31'918.0
2019-Jul-15 10:30N 48°56' W 126°19'918.0
2019-Jul-15 10:01N 48°51' W 126°07'3197.1
2019-Jul-15 10:00N 48°48' W 126°06'714.9 290 / 101017.8 5.4 16.014.318.0
2019-Jul-15 09:31N 48°46' W 125°55'918.6
2019-Jul-15 09:01N 48°42' W 125°43'918.7
2019-Jul-15 08:30N 48°37' W 125°31'918.7
2019-Jul-15 08:01N 48°32' W 125°19'918.7
2019-Jul-15 07:30N 48°31' W 125°05'918.0
2019-Jul-15 07:00N 48°31' W 124°51'918.2
2019-Jul-15 06:30N 48°29' W 124°38'918.6
2019-Jul-15 06:00N 48°26' W 124°25'918.5
2019-Jul-15 05:30N 48°22' W 124°12'917.9
2019-Jul-15 05:00N 48°19' W 123°59'918.1
2019-Jul-15 04:30N 48°17' W 123°46'1019.1
2019-Jul-15 04:00N 48°15' W 123°32'816.5
2019-Jul-15 03:30N 48°10' W 123°23'610.1
2019-Jul-15 02:57N 48°10' W 123°14'817.7
2019-Jul-15 02:30N 48°13' W 123°02'1317.9
2019-Jul-15 01:47N 48°09' W 122°44'517.4
2019-Jul-15 01:28N 48°05' W 122°39'917.8
2019-Jul-15 00:59N 47°57' W 122°33'817.0
2019-Jul-15 00:30N 47°51' W 122°27'917.9
2019-Jul-15 00:00N 47°42' W 122°27'5 9.6
2019-Jul-14 23:31N 47°38' W 122°23'0 0.4
2019-Jul-14 22:59N 47°38' W 122°23'0 0.0
2019-Jul-14 22:29N 47°38' W 122°23'0 0.0
2019-Jul-14 21:59N 47°38' W 122°23'0 0.0
2019-Jul-14 21:29N 47°38' W 122°23'0 0.0
2019-Jul-14 20:59N 47°38' W 122°23'0 0.0
2019-Jul-14 20:28N 47°38' W 122°23'0 0.0
2019-Jul-14 19:58N 47°38' W 122°23'0 0.0
2019-Jul-14 19:28N 47°38' W 122°23'0 0.0
2019-Jul-14 18:58N 47°38' W 122°23'0 0.0
2019-Jul-14 18:30N 47°38' W 122°23'0 0.0
2019-Jul-14 18:00N 47°38' W 122°23'0 0.0
2019-Jul-14 17:30N 47°38' W 122°23'0 0.0
2019-Jul-14 17:00N 47°38' W 122°23'0 0.0
2019-Jul-14 16:30N 47°38' W 122°23'0 0.0
2019-Jul-14 15:59N 47°38' W 122°23'0 0.0
2019-Jul-14 15:29N 47°38' W 122°23'0 0.0
2019-Jul-14 14:59N 47°38' W 122°23'0 0.0
2019-Jul-14 14:29N 47°38' W 122°23'0 0.0
2019-Jul-14 13:58N 47°38' W 122°23'0 0.0
2019-Jul-14 13:28N 47°38' W 122°23'0 0.0
2019-Jul-14 12:58N 47°38' W 122°23'0 0.4
2019-Jul-14 12:30N 47°38' W 122°23'2 3.0
2019-Jul-14 12:00N 47°37' W 122°25'611.2
2019-Jul-14 11:30N 47°43' W 122°27'917.4
2019-Jul-14 11:00N 47°51' W 122°29'916.9
2019-Jul-14 10:29N 47°59' W 122°36'816.9
2019-Jul-14 10:00N 48°06' W 122°40'917.5
2019-Jul-14 09:30N 48°11' W 122°51'917.1
2019-Jul-14 09:00N 48°12' W 123°03'917.3
2019-Jul-14 08:30N 48°11' W 123°16'713.7
2019-Jul-14 08:01N 48°11' W 123°27'714.5
2019-Jul-14 07:30N 48°18' W 123°28'713.0
2019-Jul-14 07:00N 48°24' W 123°24'1 1.7
2019-Jul-14 06:28N 48°25' W 123°24'0 0.0
2019-Jul-14 05:58N 48°25' W 123°24'0 0.0
2019-Jul-14 05:28N 48°25' W 123°24'0 0.0
2019-Jul-14 04:58N 48°25' W 123°24'0 0.0
2019-Jul-14 04:30N 48°25' W 123°24'0 0.0
2019-Jul-14 04:00N 48°25' W 123°24'0 0.0
2019-Jul-14 03:30N 48°25' W 123°24'0 0.0
2019-Jul-14 03:00N 48°25' W 123°24'0 0.0
2019-Jul-14 02:27N 48°25' W 123°24'0 0.0
2019-Jul-14 01:59N 48°25' W 123°24'0 0.0
2019-Jul-14 01:30N 48°25' W 123°24'1 1.2
2019-Jul-14 01:01N 48°24' W 123°24'5 9.7
2019-Jul-14 00:31N 48°20' W 123°24'714.9
2019-Jul-14 00:00N 48°13' W 123°31'1020.2
2019-Jul-13 23:30N 48°13' W 123°46'1020.8
2019-Jul-13 23:00N 48°16' W 124°01'1020.7
2019-Jul-13 22:30N 48°20' W 124°15'1020.4
2019-Jul-13 22:00N 48°24' W 124°29'3211.5
2019-Jul-13 22:00N 48°24' W 124°24'1428.3 180 / 111016.510.8 17.513.112.0
2019-Jul-13 21:31N 48°28' W 124°43'1020.9
2019-Jul-13 21:01N 48°29' W 124°59'1020.2
2019-Jul-13 20:31N 48°30' W 125°14'1020.5
2019-Jul-13 20:01N 48°35' W 125°28'1020.2
2019-Jul-13 19:31N 48°41' W 125°41'1019.8
2019-Jul-13 19:01N 48°45' W 125°54'816.5
2019-Jul-13 18:30N 48°49' W 126°05'1020.4
2019-Jul-13 18:00N 48°56' W 126°17'1020.7
2019-Jul-13 17:30N 49°02' W 126°29'1020.5
2019-Jul-13 17:00N 49°09' W 126°42'3336.1
2019-Jul-13 17:00N 49°06' W 126°42'5317.7 180 / 111016.510.8 15.514.617.0
2019-Jul-13 14:00N 49°42' W 127°42'2236.1 150 / 101015.910.8 15.514.617.0
2019-Jul-13 13:23N 49°55' W 128°09'1820.2
2019-Jul-13 12:31N 50°07' W 128°30'119.1
2019-Jul-13 12:29N 50°07' W 128°30'2018.8
2019-Jul-13 11:24N 50°21' W 128°54'1018.1
2019-Jul-13 10:50N 50°28' W 129°06'918.2
2019-Jul-13 10:21N 50°34' W 129°16'2 6.8
2019-Jul-13 10:00N 50°36' W 129°18'935.8 170 / 101019.3 5.4 17.013.516.0
2019-Jul-13 09:44N 50°42' W 129°29'418.6
2019-Jul-13 09:30N 50°45' W 129°34'1018.4
2019-Jul-13 08:56N 50°52' W 129°46'818.7
2019-Jul-13 08:29N 50°58' W 129°56'918.6
2019-Jul-13 08:00N 51°04' W 130°07'1518.9
2019-Jul-13 07:12N 51°14' W 130°24'939.6
2019-Jul-13 07:00N 51°18' W 130°36'14916.5 170 / 141019.3 5.4 16.014.316.0
2019-Jul-12 22:00N 53°12' W 133°12'7518.8 170 / 141016.510.8 16.014.316.0
2019-Jul-12 18:00N 54°24' W 133°48'267 8.6 100 / 151016.7 0.1 14.513.716.0
2019-Jul-11 11:00N 58°48' W 135°06'103 4.3 200 / 141016.3 5.4 17.013.718.0
2019-Jul-10 11:00N 57°12' W 133°54'6716.8 050 / 61015.3 5.4 13.011.313.0
2019-Jul-10 07:00N 56°06' W 134°18'   040 / 41013.3 5.4 13.011.311.0
Track history (hours):
 
Tides and Currents Weather Stations Pressure Air Temp Water Temp Dewpoint Dewpoint Depression Visibility Wind Speed Wind Dir Waves Ship Positions

Star Princess

Operator: Princess Cruises

Last reported at 2019-Jul-19 15:00 UTC. Time now 2019-Jul-19 18:32 UTC.
Position N 55°18' W 134°12'.

Length 289.6 m; beam 36 m; draft 8.4 m.

Type: Ship. MMSI: 310361000.

Wind from 180 at 11 knots

Barometer 1017.0 mb
Air temperature 13.5 ° C
Visibility: greater than 10.8 NM
Dewpoint 12.7 ° C
Water temperature 16.0 ° C

Date/timePositionNaut miles runAvg speedWind from/ knotsBaromVisibWave heightAir tempDewpointWater temp
2019-Jul-19 15:00N 55°18' W 134°12'20618.7 180 / 111017.010.8 13.512.716.0
2019-Jul-19 04:00N 58°42' W 135°06'98 2.4 180 / 201011.8 5.4 15.012.815.0
2019-Jul-17 11:00N 57°12' W 133°54'6716.8 030 / 7999.8 5.4 13.012.114.0
2019-Jul-17 07:00N 56°06' W 134°18'4511.3 010 / 14999.8 5.4 13.012.114.0
2019-Jul-17 03:00N 56°18' W 133°00'94 6.3 150 / 171005.2 5.4 14.012.215.0
2019-Jul-16 12:02N 55°08' W 131°10'1515.9
2019-Jul-16 11:04N 54°52' W 131°08'313.9
2019-Jul-16 10:53N 54°50' W 131°08'913.9
2019-Jul-16 10:15N 54°42' W 131°14'513.8
2019-Jul-16 09:54N 54°37' W 131°17'614.2
2019-Jul-16 09:28N 54°31' W 131°16'613.6
2019-Jul-16 09:00N 54°25' W 131°16'713.7
2019-Jul-16 08:30N 54°18' W 131°15'714.3
2019-Jul-16 08:00N 54°11' W 131°15'713.7
2019-Jul-16 07:30N 54°04' W 131°15'713.9
2019-Jul-16 07:01N 53°57' W 131°12'714.1
2019-Jul-16 06:30N 53°50' W 131°09'714.3
2019-Jul-16 06:00N 53°43' W 131°05'2197.5
2019-Jul-16 06:00N 53°42' W 131°06'611.9 030 / 81016.310.8 17.013.517.0
2019-Jul-16 05:30N 53°37' W 131°03'714.6
2019-Jul-16 05:01N 53°29' W 131°02'914.1
2019-Jul-16 04:22N 53°21' W 130°57'513.9
2019-Jul-16 04:01N 53°16' W 130°54'1018.1
2019-Jul-16 03:29N 53°07' W 130°48'1018.3
2019-Jul-16 02:56N 52°58' W 130°41'817.5
2019-Jul-16 02:30N 52°51' W 130°36'917.9
2019-Jul-16 01:58N 52°42' W 130°30'818.1
2019-Jul-16 01:30N 52°35' W 130°25'918.1
2019-Jul-16 01:00N 52°26' W 130°19'1318.2
2019-Jul-16 00:16N 52°14' W 130°11'517.7
2019-Jul-16 00:00N 52°09' W 130°08'1017.7
2019-Jul-15 23:28N 52°01' W 130°02'1318.2
2019-Jul-15 22:46N 51°49' W 129°54'416.2
2019-Jul-15 22:30N 51°45' W 129°51'917.8
2019-Jul-15 22:00N 51°37' W 129°45'2142.3
2019-Jul-15 22:00N 51°36' W 129°42'715.3 330 / 81018.610.8 18.016.316.0
2019-Jul-15 21:30N 51°29' W 129°39'918.0
2019-Jul-15 21:00N 51°21' W 129°34'918.2
2019-Jul-15 20:30N 51°12' W 129°28'918.6
2019-Jul-15 20:01N 51°04' W 129°22'918.3
2019-Jul-15 19:30N 50°55' W 129°16'917.8
2019-Jul-15 19:01N 50°47' W 129°11'918.7
2019-Jul-15 18:30N 50°38' W 129°05'919.0
2019-Jul-15 18:00N 50°30' W 128°59'7398.7
2019-Jul-15 18:00N 50°24' W 128°54'3 6.3 030 / 91018.310.8 19.013.818.0
2019-Jul-15 17:30N 50°21' W 128°53'1119.5
2019-Jul-15 16:57N 50°13' W 128°41'6321.3
2019-Jul-15 14:00N 49°30' W 127°30'3615.7 240 / 51018.110.8 16.215.017.0
2019-Jul-15 11:43N 49°07' W 126°48'418.8
2019-Jul-15 11:29N 49°05' W 126°42'918.2
2019-Jul-15 11:01N 49°01' W 126°31'918.0
2019-Jul-15 10:30N 48°56' W 126°19'918.0
2019-Jul-15 10:01N 48°51' W 126°07'3197.1
2019-Jul-15 10:00N 48°48' W 126°06'714.9 290 / 101017.8 5.4 16.014.318.0
2019-Jul-15 09:31N 48°46' W 125°55'918.6
2019-Jul-15 09:01N 48°42' W 125°43'918.7
2019-Jul-15 08:30N 48°37' W 125°31'918.7
2019-Jul-15 08:01N 48°32' W 125°19'918.7
2019-Jul-15 07:30N 48°31' W 125°05'918.0
2019-Jul-15 07:00N 48°31' W 124°51'918.2
2019-Jul-15 06:30N 48°29' W 124°38'918.6
2019-Jul-15 06:00N 48°26' W 124°25'918.5
2019-Jul-15 05:30N 48°22' W 124°12'917.9
2019-Jul-15 05:00N 48°19' W 123°59'918.1
2019-Jul-15 04:30N 48°17' W 123°46'1019.1
2019-Jul-15 04:00N 48°15' W 123°32'816.5
2019-Jul-15 03:30N 48°10' W 123°23'610.1
2019-Jul-15 02:57N 48°10' W 123°14'817.7
2019-Jul-15 02:30N 48°13' W 123°02'1317.9
2019-Jul-15 01:47N 48°09' W 122°44'517.4
2019-Jul-15 01:28N 48°05' W 122°39'917.8
2019-Jul-15 00:59N 47°57' W 122°33'817.0
2019-Jul-15 00:30N 47°51' W 122°27'917.9
2019-Jul-15 00:00N 47°42' W 122°27'5 9.6
2019-Jul-14 23:31N 47°38' W 122°23'0 0.4
2019-Jul-14 22:59N 47°38' W 122°23'0 0.0
2019-Jul-14 22:29N 47°38' W 122°23'0 0.0
2019-Jul-14 21:59N 47°38' W 122°23'0 0.0
2019-Jul-14 21:29N 47°38' W 122°23'0 0.0
2019-Jul-14 20:59N 47°38' W 122°23'0 0.0
2019-Jul-14 20:28N 47°38' W 122°23'0 0.0
2019-Jul-14 19:58N 47°38' W 122°23'0 0.0
2019-Jul-14 19:28N 47°38' W 122°23'0 0.0
2019-Jul-14 18:58N 47°38' W 122°23'0 0.0
2019-Jul-14 18:30N 47°38' W 122°23'0 0.0
2019-Jul-14 18:00N 47°38' W 122°23'0 0.0
2019-Jul-14 17:30N 47°38' W 122°23'0 0.0
2019-Jul-14 17:00N 47°38' W 122°23'0 0.0
2019-Jul-14 16:30N 47°38' W 122°23'0 0.0
2019-Jul-14 15:59N 47°38' W 122°23'0 0.0
2019-Jul-14 15:29N 47°38' W 122°23'0 0.0
2019-Jul-14 14:59N 47°38' W 122°23'0 0.0
2019-Jul-14 14:29N 47°38' W 122°23'0 0.0
2019-Jul-14 13:58N 47°38' W 122°23'0 0.0
2019-Jul-14 13:28N 47°38' W 122°23'0 0.0
2019-Jul-14 12:58N 47°38' W 122°23'0 0.4
2019-Jul-14 12:30N 47°38' W 122°23'2 3.0
2019-Jul-14 12:00N 47°37' W 122°25'611.2
2019-Jul-14 11:30N 47°43' W 122°27'917.4
2019-Jul-14 11:00N 47°51' W 122°29'916.9
2019-Jul-14 10:29N 47°59' W 122°36'816.9
2019-Jul-14 10:00N 48°06' W 122°40'917.5
2019-Jul-14 09:30N 48°11' W 122°51'917.1
2019-Jul-14 09:00N 48°12' W 123°03'917.3
2019-Jul-14 08:30N 48°11' W 123°16'713.7
2019-Jul-14 08:01N 48°11' W 123°27'714.5
2019-Jul-14 07:30N 48°18' W 123°28'713.0
2019-Jul-14 07:00N 48°24' W 123°24'1 1.7
2019-Jul-14 06:28N 48°25' W 123°24'0 0.0
2019-Jul-14 05:58N 48°25' W 123°24'0 0.0
2019-Jul-14 05:28N 48°25' W 123°24'0 0.0
2019-Jul-14 04:58N 48°25' W 123°24'0 0.0
2019-Jul-14 04:30N 48°25' W 123°24'0 0.0
2019-Jul-14 04:00N 48°25' W 123°24'0 0.0
2019-Jul-14 03:30N 48°25' W 123°24'0 0.0
2019-Jul-14 03:00N 48°25' W 123°24'0 0.0
2019-Jul-14 02:27N 48°25' W 123°24'0 0.0
2019-Jul-14 01:59N 48°25' W 123°24'0 0.0
2019-Jul-14 01:30N 48°25' W 123°24'1 1.2
2019-Jul-14 01:01N 48°24' W 123°24'5 9.7
2019-Jul-14 00:31N 48°20' W 123°24'714.9
2019-Jul-14 00:00N 48°13' W 123°31'1020.2
2019-Jul-13 23:30N 48°13' W 123°46'1020.8
2019-Jul-13 23:00N 48°16' W 124°01'1020.7
2019-Jul-13 22:30N 48°20' W 124°15'1020.4
2019-Jul-13 22:00N 48°24' W 124°29'3211.5
2019-Jul-13 22:00N 48°24' W 124°24'1428.3 180 / 111016.510.8 17.513.112.0
2019-Jul-13 21:31N 48°28' W 124°43'1020.9
2019-Jul-13 21:01N 48°29' W 124°59'1020.2
2019-Jul-13 20:31N 48°30' W 125°14'1020.5
2019-Jul-13 20:01N 48°35' W 125°28'1020.2
2019-Jul-13 19:31N 48°41' W 125°41'1019.8
2019-Jul-13 19:01N 48°45' W 125°54'816.5
2019-Jul-13 18:30N 48°49' W 126°05'1020.4
2019-Jul-13 18:00N 48°56' W 126°17'1020.7
2019-Jul-13 17:30N 49°02' W 126°29'1020.5
2019-Jul-13 17:00N 49°09' W 126°42'3336.1
2019-Jul-13 17:00N 49°06' W 126°42'5317.7 180 / 111016.510.8 15.514.617.0
2019-Jul-13 14:00N 49°42' W 127°42'2236.1 150 / 101015.910.8 15.514.617.0
2019-Jul-13 13:23N 49°55' W 128°09'1820.2
2019-Jul-13 12:31N 50°07' W 128°30'119.1
2019-Jul-13 12:29N 50°07' W 128°30'2018.8
2019-Jul-13 11:24N 50°21' W 128°54'1018.1
2019-Jul-13 10:50N 50°28' W 129°06'918.2
2019-Jul-13 10:21N 50°34' W 129°16'2 6.8
2019-Jul-13 10:00N 50°36' W 129°18'935.8 170 / 101019.3 5.4 17.013.516.0
2019-Jul-13 09:44N 50°42' W 129°29'418.6
2019-Jul-13 09:30N 50°45' W 129°34'1018.4
2019-Jul-13 08:56N 50°52' W 129°46'818.7
2019-Jul-13 08:29N 50°58' W 129°56'918.6
2019-Jul-13 08:00N 51°04' W 130°07'1518.9
2019-Jul-13 07:12N 51°14' W 130°24'939.6
2019-Jul-13 07:00N 51°18' W 130°36'14916.5 170 / 141019.3 5.4 16.014.316.0
2019-Jul-12 22:00N 53°12' W 133°12'7518.8 170 / 141016.510.8 16.014.316.0
2019-Jul-12 18:00N 54°24' W 133°48'267 8.6 100 / 151016.7 0.1 14.513.716.0
2019-Jul-11 11:00N 58°48' W 135°06'103 4.3 200 / 141016.3 5.4 17.013.718.0
2019-Jul-10 11:00N 57°12' W 133°54'6716.8 050 / 61015.3 5.4 13.011.313.0
2019-Jul-10 07:00N 56°06' W 134°18'   040 / 41013.3 5.4 13.011.311.0

Dump ship's entire track history